sensor_id;sensor_type;location;lat;lon;timestamp;pressure;altitude;pressure_sealevel;temperature
67829;BMP280;54626;45.436;10.942;2023-04-29T00:01:11;100554.09;;;14.23
67829;BMP280;54626;45.436;10.942;2023-04-29T00:03:38;100555.56;;;14.24
67829;BMP280;54626;45.436;10.942;2023-04-29T00:06:05;100554.50;;;14.20
67829;BMP280;54626;45.436;10.942;2023-04-29T00:08:32;100572.25;;;14.24
67829;BMP280;54626;45.436;10.942;2023-04-29T00:10:58;100575.97;;;14.27
67829;BMP280;54626;45.436;10.942;2023-04-29T00:13:25;100554.22;;;14.40
67829;BMP280;54626;45.436;10.942;2023-04-29T00:15:54;100537.34;;;14.38
67829;BMP280;54626;45.436;10.942;2023-04-29T00:18:23;100539.22;;;14.35
67829;BMP280;54626;45.436;10.942;2023-04-29T00:20:49;100536.19;;;14.41
67829;BMP280;54626;45.436;10.942;2023-04-29T00:23:16;100534.31;;;14.51
67829;BMP280;54626;45.436;10.942;2023-04-29T00:25:42;100538.38;;;14.57
67829;BMP280;54626;45.436;10.942;2023-04-29T00:28:08;100532.06;;;14.57
67829;BMP280;54626;45.436;10.942;2023-04-29T00:30:35;100527.78;;;14.56
67829;BMP280;54626;45.436;10.942;2023-04-29T00:33:02;100532.22;;;14.59
67829;BMP280;54626;45.436;10.942;2023-04-29T00:35:29;100539.31;;;14.52
67829;BMP280;54626;45.436;10.942;2023-04-29T00:37:55;100539.16;;;14.50
67829;BMP280;54626;45.436;10.942;2023-04-29T00:40:22;100532.50;;;14.46
67829;BMP280;54626;45.436;10.942;2023-04-29T00:42:48;100539.50;;;14.47
67829;BMP280;54626;45.436;10.942;2023-04-29T00:45:15;100540.03;;;14.53
67829;BMP280;54626;45.436;10.942;2023-04-29T00:47:41;100539.28;;;14.60
67829;BMP280;54626;45.436;10.942;2023-04-29T00:50:08;100537.00;;;14.66
67829;BMP280;54626;45.436;10.942;2023-04-29T00:52:36;100557.03;;;14.72
67829;BMP280;54626;45.436;10.942;2023-04-29T00:55:05;100546.66;;;14.65
67829;BMP280;54626;45.436;10.942;2023-04-29T00:57:32;100549.09;;;14.61
67829;BMP280;54626;45.436;10.942;2023-04-29T01:00:00;100547.06;;;14.61
67829;BMP280;54626;45.436;10.942;2023-04-29T01:02:27;100544.34;;;14.46
67829;BMP280;54626;45.436;10.942;2023-04-29T01:04:54;100546.25;;;14.36
67829;BMP280;54626;45.436;10.942;2023-04-29T01:10:19;100536.72;;;14.47
67829;BMP280;54626;45.436;10.942;2023-04-29T01:18:35;100528.59;;;14.41
67829;BMP280;54626;45.436;10.942;2023-04-29T01:21:02;100534.72;;;14.47
67829;BMP280;54626;45.436;10.942;2023-04-29T01:23:29;100530.41;;;14.54
67829;BMP280;54626;45.436;10.942;2023-04-29T01:25:57;100527.94;;;14.58
67829;BMP280;54626;45.436;10.942;2023-04-29T01:31:27;100531.53;;;14.51
67829;BMP280;54626;45.436;10.942;2023-04-29T01:34:27;100534.84;;;14.57
67829;BMP280;54626;45.436;10.942;2023-04-29T01:42:21;100519.97;;;14.62
67829;BMP280;54626;45.436;10.942;2023-04-29T01:44:52;100515.16;;;14.62
67829;BMP280;54626;45.436;10.942;2023-04-29T01:47:20;100526.31;;;14.55
67829;BMP280;54626;45.436;10.942;2023-04-29T01:49:48;100518.16;;;14.57
67829;BMP280;54626;45.436;10.942;2023-04-29T01:52:14;100517.78;;;14.53
67829;BMP280;54626;45.436;10.942;2023-04-29T01:54:41;100515.19;;;14.55
67829;BMP280;54626;45.436;10.942;2023-04-29T01:57:07;100509.59;;;14.55
67829;BMP280;54626;45.436;10.942;2023-04-29T01:59:34;100507.00;;;14.57
67829;BMP280;54626;45.436;10.942;2023-04-29T02:02:01;100501.84;;;14.53
67829;BMP280;54626;45.436;10.942;2023-04-29T02:04:28;100492.41;;;14.49
67829;BMP280;54626;45.436;10.942;2023-04-29T02:06:56;100500.00;;;14.48
67829;BMP280;54626;45.436;10.942;2023-04-29T02:09:25;100514.63;;;14.56
67829;BMP280;54626;45.436;10.942;2023-04-29T02:11:54;100501.97;;;14.63
67829;BMP280;54626;45.436;10.942;2023-04-29T02:14:21;100504.91;;;14.65
67829;BMP280;54626;45.436;10.942;2023-04-29T02:16:47;100498.09;;;14.58
67829;BMP280;54626;45.436;10.942;2023-04-29T02:19:14;100488.47;;;14.52
67829;BMP280;54626;45.436;10.942;2023-04-29T02:21:41;100486.03;;;14.56
67829;BMP280;54626;45.436;10.942;2023-04-29T02:24:08;100490.47;;;14.59
67829;BMP280;54626;45.436;10.942;2023-04-29T02:26:35;100511.25;;;14.58
67829;BMP280;54626;45.436;10.942;2023-04-29T02:29:03;100521.59;;;14.65
67829;BMP280;54626;45.436;10.942;2023-04-29T02:31:30;100524.72;;;14.69
67829;BMP280;54626;45.436;10.942;2023-04-29T02:33:57;100515.59;;;14.76
67829;BMP280;54626;45.436;10.942;2023-04-29T02:36:24;100499.25;;;14.80
67829;BMP280;54626;45.436;10.942;2023-04-29T02:38:50;100489.88;;;14.68
67829;BMP280;54626;45.436;10.942;2023-04-29T02:41:19;100488.44;;;14.59
67829;BMP280;54626;45.436;10.942;2023-04-29T02:43:48;100479.50;;;14.61
67829;BMP280;54626;45.436;10.942;2023-04-29T02:46:15;100483.41;;;14.65
67829;BMP280;54626;45.436;10.942;2023-04-29T02:48:42;100477.25;;;14.67
67829;BMP280;54626;45.436;10.942;2023-04-29T02:51:08;100482.81;;;14.67
67829;BMP280;54626;45.436;10.942;2023-04-29T02:53:35;100494.72;;;14.67
67829;BMP280;54626;45.436;10.942;2023-04-29T02:56:02;100508.78;;;14.69
67829;BMP280;54626;45.436;10.942;2023-04-29T02:58:28;100516.56;;;14.71
67829;BMP280;54626;45.436;10.942;2023-04-29T03:00:57;100525.66;;;14.71
67829;BMP280;54626;45.436;10.942;2023-04-29T03:03:23;100530.16;;;14.67
67829;BMP280;54626;45.436;10.942;2023-04-29T03:05:50;100534.81;;;14.64
67829;BMP280;54626;45.436;10.942;2023-04-29T03:08:17;100527.75;;;14.63
67829;BMP280;54626;45.436;10.942;2023-04-29T03:10:43;100529.63;;;14.61
67829;BMP280;54626;45.436;10.942;2023-04-29T03:13:11;100520.13;;;14.64
67829;BMP280;54626;45.436;10.942;2023-04-29T03:15:38;100514.34;;;14.69
67829;BMP280;54626;45.436;10.942;2023-04-29T03:18:04;100503.94;;;14.70
67829;BMP280;54626;45.436;10.942;2023-04-29T03:20:31;100489.88;;;14.68
67829;BMP280;54626;45.436;10.942;2023-04-29T03:23:00;100498.38;;;14.70
67829;BMP280;54626;45.436;10.942;2023-04-29T03:25:27;100502.47;;;14.69
67829;BMP280;54626;45.436;10.942;2023-04-29T03:27:54;100491.31;;;14.69
67829;BMP280;54626;45.436;10.942;2023-04-29T03:30:20;100494.53;;;14.65
67829;BMP280;54626;45.436;10.942;2023-04-29T03:32:47;100502.13;;;14.65
67829;BMP280;54626;45.436;10.942;2023-04-29T03:35:14;100512.72;;;14.66
67829;BMP280;54626;45.436;10.942;2023-04-29T03:37:41;100520.31;;;14.66
67829;BMP280;54626;45.436;10.942;2023-04-29T03:40:12;100528.31;;;14.62
67829;BMP280;54626;45.436;10.942;2023-04-29T03:42:38;100517.94;;;14.62
67829;BMP280;54626;45.436;10.942;2023-04-29T03:45:05;100510.13;;;14.61
67829;BMP280;54626;45.436;10.942;2023-04-29T03:47:32;100500.31;;;14.60
67829;BMP280;54626;45.436;10.942;2023-04-29T03:50:01;100496.41;;;14.63
67829;BMP280;54626;45.436;10.942;2023-04-29T03:52:33;100494.72;;;14.60
67829;BMP280;54626;45.436;10.942;2023-04-29T03:55:02;100496.03;;;14.59
67829;BMP280;54626;45.436;10.942;2023-04-29T03:57:28;100492.56;;;14.51
67829;BMP280;54626;45.436;10.942;2023-04-29T03:59:55;100488.31;;;14.50
67829;BMP280;54626;45.436;10.942;2023-04-29T04:02:21;100490.91;;;14.48
67829;BMP280;54626;45.436;10.942;2023-04-29T04:04:48;100487.78;;;14.44
67829;BMP280;54626;45.436;10.942;2023-04-29T04:07:15;100501.16;;;14.45
67829;BMP280;54626;45.436;10.942;2023-04-29T04:09:46;100508.91;;;14.47
67829;BMP280;54626;45.436;10.942;2023-04-29T04:12:12;100501.69;;;14.44
67829;BMP280;54626;45.436;10.942;2023-04-29T04:14:39;100511.00;;;14.39
67829;BMP280;54626;45.436;10.942;2023-04-29T04:17:06;100515.28;;;14.40
67829;BMP280;54626;45.436;10.942;2023-04-29T04:19:32;100511.75;;;14.39
67829;BMP280;54626;45.436;10.942;2023-04-29T04:21:59;100513.59;;;14.44
67829;BMP280;54626;45.436;10.942;2023-04-29T04:24:25;100511.53;;;14.45
67829;BMP280;54626;45.436;10.942;2023-04-29T04:26:52;100505.06;;;14.42
67829;BMP280;54626;45.436;10.942;2023-04-29T04:29:19;100498.91;;;14.44
67829;BMP280;54626;45.436;10.942;2023-04-29T04:31:46;100496.31;;;14.46
67829;BMP280;54626;45.436;10.942;2023-04-29T04:34:12;100507.44;;;14.46
67829;BMP280;54626;45.436;10.942;2023-04-29T04:36:39;100509.28;;;14.51
67829;BMP280;54626;45.436;10.942;2023-04-29T04:39:06;100499.59;;;14.52
67829;BMP280;54626;45.436;10.942;2023-04-29T04:41:33;100509.28;;;14.51
67829;BMP280;54626;45.436;10.942;2023-04-29T04:44:00;100522.03;;;14.54
67829;BMP280;54626;45.436;10.942;2023-04-29T04:46:26;100530.03;;;14.57
67829;BMP280;54626;45.436;10.942;2023-04-29T04:48:53;100518.72;;;14.55
67829;BMP280;54626;45.436;10.942;2023-04-29T04:51:22;100520.41;;;14.51
67829;BMP280;54626;45.436;10.942;2023-04-29T04:53:49;100524.28;;;14.55
67829;BMP280;54626;45.436;10.942;2023-04-29T04:56:15;100523.09;;;14.66
67829;BMP280;54626;45.436;10.942;2023-04-29T04:58:42;100506.56;;;14.68
67829;BMP280;54626;45.436;10.942;2023-04-29T05:01:09;100512.13;;;14.68
67829;BMP280;54626;45.436;10.942;2023-04-29T05:03:35;100500.78;;;14.73
67829;BMP280;54626;45.436;10.942;2023-04-29T05:06:02;100502.38;;;14.84
67829;BMP280;54626;45.436;10.942;2023-04-29T05:08:29;100507.22;;;14.83
67829;BMP280;54626;45.436;10.942;2023-04-29T05:10:56;100514.59;;;14.88
67829;BMP280;54626;45.436;10.942;2023-04-29T05:13:23;100524.03;;;14.93
67829;BMP280;54626;45.436;10.942;2023-04-29T05:15:51;100522.72;;;14.94
67829;BMP280;54626;45.436;10.942;2023-04-29T05:18:20;100524.63;;;14.91
67829;BMP280;54626;45.436;10.942;2023-04-29T05:20:47;100523.66;;;14.96
67829;BMP280;54626;45.436;10.942;2023-04-29T05:23:14;100521.03;;;14.98
67829;BMP280;54626;45.436;10.942;2023-04-29T05:25:40;100520.44;;;14.99
67829;BMP280;54626;45.436;10.942;2023-04-29T05:28:07;100517.63;;;15.07
67829;BMP280;54626;45.436;10.942;2023-04-29T05:30:34;100521.63;;;15.13
67829;BMP280;54626;45.436;10.942;2023-04-29T05:33:01;100521.16;;;15.24
67829;BMP280;54626;45.436;10.942;2023-04-29T05:35:27;100521.00;;;15.22
67829;BMP280;54626;45.436;10.942;2023-04-29T05:37:53;100542.00;;;15.23
67829;BMP280;54626;45.436;10.942;2023-04-29T05:40:20;100541.19;;;15.30
67829;BMP280;54626;45.436;10.942;2023-04-29T05:42:48;100529.84;;;15.53
67829;BMP280;54626;45.436;10.942;2023-04-29T05:45:15;100523.94;;;15.66
67829;BMP280;54626;45.436;10.942;2023-04-29T05:47:41;100529.94;;;15.62
67829;BMP280;54626;45.436;10.942;2023-04-29T05:50:07;100538.72;;;15.75
67829;BMP280;54626;45.436;10.942;2023-04-29T05:52:34;100535.75;;;15.73
67829;BMP280;54626;45.436;10.942;2023-04-29T05:55:00;100532.09;;;15.71
67829;BMP280;54626;45.436;10.942;2023-04-29T05:57:27;100537.25;;;15.74
67829;BMP280;54626;45.436;10.942;2023-04-29T05:59:54;100539.16;;;15.72
67829;BMP280;54626;45.436;10.942;2023-04-29T06:02:21;100539.84;;;15.72
67829;BMP280;54626;45.436;10.942;2023-04-29T06:04:49;100552.09;;;15.77
67829;BMP280;54626;45.436;10.942;2023-04-29T06:07:16;100555.28;;;15.90
67829;BMP280;54626;45.436;10.942;2023-04-29T06:09:46;100557.25;;;15.97
67829;BMP280;54626;45.436;10.942;2023-04-29T06:12:15;100558.88;;;16.00
67829;BMP280;54626;45.436;10.942;2023-04-29T06:14:41;100550.47;;;16.08
67829;BMP280;54626;45.436;10.942;2023-04-29T06:17:10;100545.75;;;16.10
67829;BMP280;54626;45.436;10.942;2023-04-29T06:19:38;100557.16;;;16.22
67829;BMP280;54626;45.436;10.942;2023-04-29T06:22:04;100570.28;;;16.29
67829;BMP280;54626;45.436;10.942;2023-04-29T06:24:31;100571.09;;;16.38
67829;BMP280;54626;45.436;10.942;2023-04-29T06:27:00;100569.72;;;16.56
67829;BMP280;54626;45.436;10.942;2023-04-29T06:29:29;100581.38;;;16.62
67829;BMP280;54626;45.436;10.942;2023-04-29T06:31:55;100579.63;;;16.67
67829;BMP280;54626;45.436;10.942;2023-04-29T06:34:22;100572.09;;;16.86
67829;BMP280;54626;45.436;10.942;2023-04-29T06:36:50;100557.97;;;16.84
67829;BMP280;54626;45.436;10.942;2023-04-29T06:39:19;100548.59;;;16.89
67829;BMP280;54626;45.436;10.942;2023-04-29T06:41:45;100565.38;;;16.98
67829;BMP280;54626;45.436;10.942;2023-04-29T06:44:12;100564.50;;;17.05
67829;BMP280;54626;45.436;10.942;2023-04-29T06:46:39;100569.97;;;17.03
67829;BMP280;54626;45.436;10.942;2023-04-29T06:49:07;100574.13;;;17.12
67829;BMP280;54626;45.436;10.942;2023-04-29T06:51:37;100574.13;;;17.21
67829;BMP280;54626;45.436;10.942;2023-04-29T06:54:04;100566.09;;;17.35
67829;BMP280;54626;45.436;10.942;2023-04-29T06:56:31;100560.03;;;17.29
67829;BMP280;54626;45.436;10.942;2023-04-29T06:58:58;100565.78;;;17.31
67829;BMP280;54626;45.436;10.942;2023-04-29T07:01:27;100552.72;;;16.97
67829;BMP280;54626;45.436;10.942;2023-04-29T07:03:54;100544.69;;;17.11
67829;BMP280;54626;45.436;10.942;2023-04-29T07:06:22;100552.56;;;17.50
67829;BMP280;54626;45.436;10.942;2023-04-29T07:08:48;100558.75;;;17.49
67829;BMP280;54626;45.436;10.942;2023-04-29T07:11:15;100557.91;;;17.56
67829;BMP280;54626;45.436;10.942;2023-04-29T07:13:42;100560.53;;;17.63
67829;BMP280;54626;45.436;10.942;2023-04-29T07:16:16;100552.72;;;17.99
67829;BMP280;54626;45.436;10.942;2023-04-29T07:18:47;100560.06;;;18.23
67829;BMP280;54626;45.436;10.942;2023-04-29T07:21:16;100555.50;;;18.27
67829;BMP280;54626;45.436;10.942;2023-04-29T07:23:45;100550.19;;;18.31
67829;BMP280;54626;45.436;10.942;2023-04-29T07:26:15;100550.81;;;18.21
67829;BMP280;54626;45.436;10.942;2023-04-29T07:28:42;100548.00;;;18.30
67829;BMP280;54626;45.436;10.942;2023-04-29T07:31:09;100554.72;;;18.46
67829;BMP280;54626;45.436;10.942;2023-04-29T07:33:37;100557.56;;;18.27
67829;BMP280;54626;45.436;10.942;2023-04-29T07:36:04;100563.31;;;18.38
67829;BMP280;54626;45.436;10.942;2023-04-29T07:38:32;100556.69;;;18.43
67829;BMP280;54626;45.436;10.942;2023-04-29T07:40:59;100552.53;;;18.35
67829;BMP280;54626;45.436;10.942;2023-04-29T07:43:26;100554.13;;;18.57
67829;BMP280;54626;45.436;10.942;2023-04-29T07:45:55;100557.78;;;18.59
67829;BMP280;54626;45.436;10.942;2023-04-29T07:48:22;100574.84;;;18.73
67829;BMP280;54626;45.436;10.942;2023-04-29T07:50:48;100571.38;;;18.44
67829;BMP280;54626;45.436;10.942;2023-04-29T07:53:16;100583.22;;;18.33
67829;BMP280;54626;45.436;10.942;2023-04-29T07:55:43;100589.09;;;18.37
67829;BMP280;54626;45.436;10.942;2023-04-29T07:58:10;100589.81;;;18.47
67829;BMP280;54626;45.436;10.942;2023-04-29T08:00:37;100593.41;;;18.78
67829;BMP280;54626;45.436;10.942;2023-04-29T08:03:04;100594.66;;;18.95
67829;BMP280;54626;45.436;10.942;2023-04-29T08:05:30;100594.47;;;18.73
67829;BMP280;54626;45.436;10.942;2023-04-29T08:07:57;100590.47;;;18.76
67829;BMP280;54626;45.436;10.942;2023-04-29T08:10:24;100596.97;;;19.08
67829;BMP280;54626;45.436;10.942;2023-04-29T08:12:51;100602.97;;;19.14
67829;BMP280;54626;45.436;10.942;2023-04-29T08:15:18;100606.97;;;19.21
67829;BMP280;54626;45.436;10.942;2023-04-29T08:17:45;100602.06;;;19.21
67829;BMP280;54626;45.436;10.942;2023-04-29T08:20:12;100601.75;;;19.27
67829;BMP280;54626;45.436;10.942;2023-04-29T08:22:40;100603.56;;;19.22
67829;BMP280;54626;45.436;10.942;2023-04-29T08:25:07;100602.75;;;19.31
67829;BMP280;54626;45.436;10.942;2023-04-29T08:27:34;100606.03;;;19.28
67829;BMP280;54626;45.436;10.942;2023-04-29T08:30:01;100605.00;;;19.44
67829;BMP280;54626;45.436;10.942;2023-04-29T08:32:27;100610.34;;;19.40
67829;BMP280;54626;45.436;10.942;2023-04-29T08:34:56;100606.91;;;19.51
67829;BMP280;54626;45.436;10.942;2023-04-29T08:37:23;100614.78;;;19.43
67829;BMP280;54626;45.436;10.942;2023-04-29T08:39:50;100610.25;;;19.59
67829;BMP280;54626;45.436;10.942;2023-04-29T08:42:20;100616.13;;;19.63
67829;BMP280;54626;45.436;10.942;2023-04-29T08:44:51;100605.31;;;19.69
67829;BMP280;54626;45.436;10.942;2023-04-29T08:47:18;100614.91;;;19.87
67829;BMP280;54626;45.436;10.942;2023-04-29T08:49:45;100603.31;;;19.39
67829;BMP280;54626;45.436;10.942;2023-04-29T08:52:12;100616.53;;;19.69
67829;BMP280;54626;45.436;10.942;2023-04-29T08:54:38;100611.84;;;19.83
67829;BMP280;54626;45.436;10.942;2023-04-29T08:57:09;100601.22;;;20.02
67829;BMP280;54626;45.436;10.942;2023-04-29T08:59:36;100609.34;;;20.30
67829;BMP280;54626;45.436;10.942;2023-04-29T09:02:08;100611.97;;;20.49
67829;BMP280;54626;45.436;10.942;2023-04-29T09:04:47;100606.44;;;20.40
67829;BMP280;54626;45.436;10.942;2023-04-29T09:07:15;100600.25;;;20.53
67829;BMP280;54626;45.436;10.942;2023-04-29T09:09:42;100607.44;;;20.44
67829;BMP280;54626;45.436;10.942;2023-04-29T09:12:11;100599.44;;;20.29
67829;BMP280;54626;45.436;10.942;2023-04-29T09:14:38;100604.47;;;19.98
67829;BMP280;54626;45.436;10.942;2023-04-29T09:17:05;100600.13;;;19.86
67829;BMP280;54626;45.436;10.942;2023-04-29T09:19:33;100600.34;;;19.58
67829;BMP280;54626;45.436;10.942;2023-04-29T09:22:01;100602.84;;;19.63
67829;BMP280;54626;45.436;10.942;2023-04-29T09:24:29;100597.44;;;20.09
67829;BMP280;54626;45.436;10.942;2023-04-29T09:26:57;100577.75;;;20.41
67829;BMP280;54626;45.436;10.942;2023-04-29T09:29:24;100596.25;;;20.90
67829;BMP280;54626;45.436;10.942;2023-04-29T09:31:53;100588.16;;;20.96
67829;BMP280;54626;45.436;10.942;2023-04-29T09:34:32;100601.06;;;20.44
67829;BMP280;54626;45.436;10.942;2023-04-29T09:36:58;100594.75;;;20.43
67829;BMP280;54626;45.436;10.942;2023-04-29T09:39:25;100583.28;;;20.85
67829;BMP280;54626;45.436;10.942;2023-04-29T09:47:08;100584.25;;;21.01
67829;BMP280;54626;45.436;10.942;2023-04-29T09:49:38;100578.50;;;21.21
67829;BMP280;54626;45.436;10.942;2023-04-29T09:52:08;100576.63;;;21.37
67829;BMP280;54626;45.436;10.942;2023-04-29T09:54:38;100574.56;;;21.15
67829;BMP280;54626;45.436;10.942;2023-04-29T09:57:09;100575.56;;;21.19
67829;BMP280;54626;45.436;10.942;2023-04-29T09:59:40;100564.13;;;21.40
67829;BMP280;54626;45.436;10.942;2023-04-29T10:02:17;100560.75;;;21.30
67829;BMP280;54626;45.436;10.942;2023-04-29T10:04:45;100556.81;;;21.24
67829;BMP280;54626;45.436;10.942;2023-04-29T10:07:16;100568.84;;;20.56
67829;BMP280;54626;45.436;10.942;2023-04-29T10:09:46;100564.69;;;20.80
67829;BMP280;54626;45.436;10.942;2023-04-29T10:12:16;100572.66;;;20.83
67829;BMP280;54626;45.436;10.942;2023-04-29T10:14:56;100565.19;;;20.65
67829;BMP280;54626;45.436;10.942;2023-04-29T10:17:45;100563.19;;;21.24
67829;BMP280;54626;45.436;10.942;2023-04-29T10:20:20;100557.34;;;22.06
67829;BMP280;54626;45.436;10.942;2023-04-29T10:22:54;100558.53;;;22.15
67829;BMP280;54626;45.436;10.942;2023-04-29T10:25:23;100562.28;;;22.57
67829;BMP280;54626;45.436;10.942;2023-04-29T10:27:50;100559.97;;;22.67
67829;BMP280;54626;45.436;10.942;2023-04-29T10:30:22;100571.06;;;23.03
67829;BMP280;54626;45.436;10.942;2023-04-29T10:32:50;100559.16;;;23.47
67829;BMP280;54626;45.436;10.942;2023-04-29T10:35:19;100561.13;;;23.02
67829;BMP280;54626;45.436;10.942;2023-04-29T10:37:48;100549.63;;;22.85
67829;BMP280;54626;45.436;10.942;2023-04-29T10:40:30;100556.53;;;22.69
67829;BMP280;54626;45.436;10.942;2023-04-29T10:43:17;100535.00;;;22.62
67829;BMP280;54626;45.436;10.942;2023-04-29T10:48:46;100534.66;;;23.09
67829;BMP280;54626;45.436;10.942;2023-04-29T10:51:38;100528.31;;;22.95
67829;BMP280;54626;45.436;10.942;2023-04-29T10:54:13;100528.94;;;23.07
67829;BMP280;54626;45.436;10.942;2023-04-29T10:56:51;100525.94;;;23.32
67829;BMP280;54626;45.436;10.942;2023-04-29T11:02:09;100516.00;;;23.31
67829;BMP280;54626;45.436;10.942;2023-04-29T11:05:09;100509.81;;;23.34
67829;BMP280;54626;45.436;10.942;2023-04-29T11:07:35;100522.16;;;23.28
67829;BMP280;54626;45.436;10.942;2023-04-29T11:10:03;100516.41;;;22.83
67829;BMP280;54626;45.436;10.942;2023-04-29T11:12:30;100510.25;;;22.60
67829;BMP280;54626;45.436;10.942;2023-04-29T11:14:57;100504.16;;;22.25
67829;BMP280;54626;45.436;10.942;2023-04-29T11:17:36;100503.47;;;22.38
67829;BMP280;54626;45.436;10.942;2023-04-29T11:20:10;100513.03;;;22.33
67829;BMP280;54626;45.436;10.942;2023-04-29T11:22:38;100511.09;;;22.49
67829;BMP280;54626;45.436;10.942;2023-04-29T11:25:06;100512.44;;;23.02
67829;BMP280;54626;45.436;10.942;2023-04-29T11:27:37;100513.91;;;22.89
67829;BMP280;54626;45.436;10.942;2023-04-29T11:30:05;100513.38;;;22.79
67829;BMP280;54626;45.436;10.942;2023-04-29T11:32:35;100510.44;;;23.04
67829;BMP280;54626;45.436;10.942;2023-04-29T11:35:11;100513.59;;;23.39
67829;BMP280;54626;45.436;10.942;2023-04-29T11:37:39;100503.56;;;23.36
67829;BMP280;54626;45.436;10.942;2023-04-29T11:40:07;100504.28;;;22.81
67829;BMP280;54626;45.436;10.942;2023-04-29T11:42:35;100506.47;;;22.96
67829;BMP280;54626;45.436;10.942;2023-04-29T11:45:04;100504.59;;;22.87
67829;BMP280;54626;45.436;10.942;2023-04-29T11:47:32;100504.25;;;23.08
67829;BMP280;54626;45.436;10.942;2023-04-29T11:50:05;100513.91;;;22.89
67829;BMP280;54626;45.436;10.942;2023-04-29T11:52:35;100508.41;;;23.49
67829;BMP280;54626;45.436;10.942;2023-04-29T11:55:04;100508.94;;;23.45
67829;BMP280;54626;45.436;10.942;2023-04-29T11:57:30;100505.91;;;23.55
67829;BMP280;54626;45.436;10.942;2023-04-29T11:59:57;100503.09;;;24.01
67829;BMP280;54626;45.436;10.942;2023-04-29T12:02:30;100505.28;;;23.87
67829;BMP280;54626;45.436;10.942;2023-04-29T12:05:04;100502.53;;;23.74
67829;BMP280;54626;45.436;10.942;2023-04-29T12:07:31;100516.41;;;23.68
67829;BMP280;54626;45.436;10.942;2023-04-29T12:09:57;100501.22;;;24.05
67829;BMP280;54626;45.436;10.942;2023-04-29T12:12:26;100500.38;;;23.87
67829;BMP280;54626;45.436;10.942;2023-04-29T12:14:54;100502.34;;;23.70
67829;BMP280;54626;45.436;10.942;2023-04-29T12:17:21;100515.53;;;24.09
67829;BMP280;54626;45.436;10.942;2023-04-29T12:19:47;100500.41;;;23.59
67829;BMP280;54626;45.436;10.942;2023-04-29T12:22:14;100504.00;;;23.90
67829;BMP280;54626;45.436;10.942;2023-04-29T12:24:40;100509.97;;;24.11
67829;BMP280;54626;45.436;10.942;2023-04-29T12:27:08;100499.16;;;24.38
67829;BMP280;54626;45.436;10.942;2023-04-29T12:29:35;100502.47;;;24.81
67829;BMP280;54626;45.436;10.942;2023-04-29T12:32:02;100510.59;;;24.73
67829;BMP280;54626;45.436;10.942;2023-04-29T12:34:30;100501.91;;;24.52
67829;BMP280;54626;45.436;10.942;2023-04-29T12:37:00;100498.25;;;24.82
67829;BMP280;54626;45.436;10.942;2023-04-29T12:39:28;100487.66;;;24.83
67829;BMP280;54626;45.436;10.942;2023-04-29T12:41:59;100493.25;;;24.48
67829;BMP280;54626;45.436;10.942;2023-04-29T12:44:26;100488.25;;;23.85
67829;BMP280;54626;45.436;10.942;2023-04-29T12:47:10;100486.88;;;23.86
67829;BMP280;54626;45.436;10.942;2023-04-29T12:49:45;100478.13;;;24.26
67829;BMP280;54626;45.436;10.942;2023-04-29T12:52:12;100477.50;;;24.60
67829;BMP280;54626;45.436;10.942;2023-04-29T12:54:39;100475.78;;;24.53
67829;BMP280;54626;45.436;10.942;2023-04-29T12:57:13;100462.75;;;24.79
67829;BMP280;54626;45.436;10.942;2023-04-29T12:59:39;100463.56;;;24.82
67829;BMP280;54626;45.436;10.942;2023-04-29T13:02:07;100455.03;;;25.14
67829;BMP280;54626;45.436;10.942;2023-04-29T13:04:35;100461.06;;;25.41
67829;BMP280;54626;45.436;10.942;2023-04-29T13:07:03;100455.66;;;25.30
67829;BMP280;54626;45.436;10.942;2023-04-29T13:09:32;100452.53;;;25.59
67829;BMP280;54626;45.436;10.942;2023-04-29T13:12:00;100435.84;;;25.13
67829;BMP280;54626;45.436;10.942;2023-04-29T13:14:28;100435.81;;;24.78
67829;BMP280;54626;45.436;10.942;2023-04-29T13:16:56;100432.84;;;24.91
67829;BMP280;54626;45.436;10.942;2023-04-29T13:19:25;100433.66;;;24.77
67829;BMP280;54626;45.436;10.942;2023-04-29T13:22:12;100441.91;;;24.23
67829;BMP280;54626;45.436;10.942;2023-04-29T13:24:38;100438.38;;;24.55
67829;BMP280;54626;45.436;10.942;2023-04-29T13:27:05;100428.19;;;24.65
67829;BMP280;54626;45.436;10.942;2023-04-29T13:29:33;100433.09;;;25.69
67829;BMP280;54626;45.436;10.942;2023-04-29T13:31:59;100427.25;;;25.28
67829;BMP280;54626;45.436;10.942;2023-04-29T13:34:26;100419.75;;;25.00
67829;BMP280;54626;45.436;10.942;2023-04-29T13:36:53;100420.66;;;25.41
67829;BMP280;54626;45.436;10.942;2023-04-29T13:39:19;100428.56;;;25.42
67829;BMP280;54626;45.436;10.942;2023-04-29T13:41:48;100428.81;;;25.14
67829;BMP280;54626;45.436;10.942;2023-04-29T13:44:23;100418.28;;;24.82
67829;BMP280;54626;45.436;10.942;2023-04-29T13:47:04;100428.97;;;25.00
67829;BMP280;54626;45.436;10.942;2023-04-29T13:49:31;100418.75;;;25.28
67829;BMP280;54626;45.436;10.942;2023-04-29T13:52:21;100408.88;;;25.12
67829;BMP280;54626;45.436;10.942;2023-04-29T13:54:53;100413.56;;;25.23
67829;BMP280;54626;45.436;10.942;2023-04-29T13:57:22;100411.09;;;25.13
67829;BMP280;54626;45.436;10.942;2023-04-29T13:59:52;100404.75;;;25.15
67829;BMP280;54626;45.436;10.942;2023-04-29T14:02:21;100410.97;;;25.29
67829;BMP280;54626;45.436;10.942;2023-04-29T14:04:51;100404.13;;;24.82
67829;BMP280;54626;45.436;10.942;2023-04-29T14:07:18;100404.66;;;24.43
67829;BMP280;54626;45.436;10.942;2023-04-29T14:09:44;100410.69;;;24.86
67829;BMP280;54626;45.436;10.942;2023-04-29T14:12:11;100401.53;;;25.05
67829;BMP280;54626;45.436;10.942;2023-04-29T14:14:39;100419.44;;;25.09
67829;BMP280;54626;45.436;10.942;2023-04-29T14:17:06;100410.06;;;25.41
67829;BMP280;54626;45.436;10.942;2023-04-29T14:19:32;100408.03;;;25.61